sensor_id;sensor_type;location;lat;lon;timestamp;temperature;humidity
19755;DHT22;10036;47.812;9.274;2022-09-03T00:00:14;16.50;99.90
19755;DHT22;10036;47.812;9.274;2022-09-03T00:02:43;16.60;99.90
19755;DHT22;10036;47.812;9.274;2022-09-03T00:05:16;16.60;99.90
19755;DHT22;10036;47.812;9.274;2022-09-03T00:07:48;16.60;99.90
19755;DHT22;10036;47.812;9.274;2022-09-03T00:10:23;16.60;99.90
19755;DHT22;10036;47.812;9.274;2022-09-03T00:12:53;16.40;99.90
19755;DHT22;10036;47.812;9.274;2022-09-03T00:15:24;16.60;99.90
19755;DHT22;10036;47.812;9.274;2022-09-03T00:17:53;16.50;99.90
19755;DHT22;10036;47.812;9.274;2022-09-03T00:20:26;16.40;99.90
19755;DHT22;10036;47.812;9.274;2022-09-03T00:22:56;16.20;99.90
19755;DHT22;10036;47.812;9.274;2022-09-03T00:25:34;16.30;99.90
19755;DHT22;10036;47.812;9.274;2022-09-03T00:28:06;16.40;99.90
19755;DHT22;10036;47.812;9.274;2022-09-03T00:30:37;16.40;99.90
19755;DHT22;10036;47.812;9.274;2022-09-03T00:33:08;16.40;99.90
19755;DHT22;10036;47.812;9.274;2022-09-03T00:35:42;16.50;99.90
19755;DHT22;10036;47.812;9.274;2022-09-03T00:38:12;16.30;99.90
19755;DHT22;10036;47.812;9.274;2022-09-03T00:40:55;16.30;99.90
19755;DHT22;10036;47.812;9.274;2022-09-03T00:43:32;16.30;99.90
19755;DHT22;10036;47.812;9.274;2022-09-03T00:46:07;16.10;99.90
19755;DHT22;10036;47.812;9.274;2022-09-03T00:48:54;16.10;99.90
19755;DHT22;10036;47.812;9.274;2022-09-03T00:51:27;15.90;99.90
19755;DHT22;10036;47.812;9.274;2022-09-03T00:54:04;16.00;99.90
19755;DHT22;10036;47.812;9.274;2022-09-03T00:56:40;16.10;99.90
19755;DHT22;10036;47.812;9.274;2022-09-03T00:59:21;16.10;99.90
19755;DHT22;10036;47.812;9.274;2022-09-03T01:02:02;16.10;99.90
19755;DHT22;10036;47.812;9.274;2022-09-03T01:04:41;16.00;99.90
19755;DHT22;10036;47.812;9.274;2022-09-03T01:07:17;16.00;99.90
19755;DHT22;10036;47.812;9.274;2022-09-03T01:09:52;16.00;99.90
19755;DHT22;10036;47.812;9.274;2022-09-03T01:12:34;16.00;99.90
19755;DHT22;10036;47.812;9.274;2022-09-03T01:15:08;16.00;99.90
19755;DHT22;10036;47.812;9.274;2022-09-03T01:17:50;16.10;99.90
19755;DHT22;10036;47.812;9.274;2022-09-03T01:20:37;16.00;99.90
19755;DHT22;10036;47.812;9.274;2022-09-03T01:23:34;15.80;99.90
19755;DHT22;10036;47.812;9.274;2022-09-03T01:26:15;15.80;99.90
19755;DHT22;10036;47.812;9.274;2022-09-03T01:28:55;15.70;99.90
19755;DHT22;10036;47.812;9.274;2022-09-03T01:31:30;15.90;99.90
19755;DHT22;10036;47.812;9.274;2022-09-03T01:34:09;15.90;99.90
19755;DHT22;10036;47.812;9.274;2022-09-03T01:36:46;16.00;99.90
19755;DHT22;10036;47.812;9.274;2022-09-03T01:39:24;16.00;99.90
19755;DHT22;10036;47.812;9.274;2022-09-03T01:42:00;16.10;99.90
19755;DHT22;10036;47.812;9.274;2022-09-03T01:45:02;16.20;99.90
19755;DHT22;10036;47.812;9.274;2022-09-03T01:47:47;16.20;99.90
19755;DHT22;10036;47.812;9.274;2022-09-03T01:50:26;16.30;99.90
19755;DHT22;10036;47.812;9.274;2022-09-03T01:53:04;16.40;99.90
19755;DHT22;10036;47.812;9.274;2022-09-03T01:55:43;16.40;99.90
19755;DHT22;10036;47.812;9.274;2022-09-03T01:58:20;16.20;99.90
19755;DHT22;10036;47.812;9.274;2022-09-03T02:01:02;16.00;99.90
19755;DHT22;10036;47.812;9.274;2022-09-03T02:03:34;16.00;99.90
19755;DHT22;10036;47.812;9.274;2022-09-03T02:06:02;16.00;99.90
19755;DHT22;10036;47.812;9.274;2022-09-03T02:08:31;16.00;99.90
19755;DHT22;10036;47.812;9.274;2022-09-03T02:10:58;16.00;99.90
19755;DHT22;10036;47.812;9.274;2022-09-03T02:13:30;16.10;99.90
19755;DHT22;10036;47.812;9.274;2022-09-03T02:16:03;16.00;99.90
19755;DHT22;10036;47.812;9.274;2022-09-03T02:18:37;16.00;99.90
19755;DHT22;10036;47.812;9.274;2022-09-03T02:21:06;15.90;99.90
19755;DHT22;10036;47.812;9.274;2022-09-03T02:23:38;15.90;99.90
19755;DHT22;10036;47.812;9.274;2022-09-03T02:26:06;16.00;99.90
19755;DHT22;10036;47.812;9.274;2022-09-03T02:28:34;15.90;99.90
19755;DHT22;10036;47.812;9.274;2022-09-03T02:31:02;15.90;99.90
19755;DHT22;10036;47.812;9.274;2022-09-03T02:33:30;16.00;99.90
19755;DHT22;10036;47.812;9.274;2022-09-03T02:35:57;16.10;99.90
19755;DHT22;10036;47.812;9.274;2022-09-03T02:38:25;16.10;99.90
19755;DHT22;10036;47.812;9.274;2022-09-03T02:40:53;16.20;99.90
19755;DHT22;10036;47.812;9.274;2022-09-03T02:43:24;16.30;99.90
19755;DHT22;10036;47.812;9.274;2022-09-03T02:45:56;16.30;99.90
19755;DHT22;10036;47.812;9.274;2022-09-03T02:48:26;16.20;99.90
19755;DHT22;10036;47.812;9.274;2022-09-03T02:50:53;16.10;99.90
19755;DHT22;10036;47.812;9.274;2022-09-03T02:53:20;16.10;99.90
19755;DHT22;10036;47.812;9.274;2022-09-03T02:55:47;16.00;99.90
19755;DHT22;10036;47.812;9.274;2022-09-03T02:58:13;16.00;99.90
19755;DHT22;10036;47.812;9.274;2022-09-03T03:00:40;16.00;99.90
19755;DHT22;10036;47.812;9.274;2022-09-03T03:03:07;16.10;99.90
19755;DHT22;10036;47.812;9.274;2022-09-03T03:05:43;16.10;99.90
19755;DHT22;10036;47.812;9.274;2022-09-03T03:08:11;16.00;99.90
19755;DHT22;10036;47.812;9.274;2022-09-03T03:10:39;15.90;99.90
19755;DHT22;10036;47.812;9.274;2022-09-03T03:13:06;15.90;99.90
19755;DHT22;10036;47.812;9.274;2022-09-03T03:15:33;16.00;99.90
19755;DHT22;10036;47.812;9.274;2022-09-03T03:18:00;16.00;99.90
19755;DHT22;10036;47.812;9.274;2022-09-03T03:20:27;16.10;99.90
19755;DHT22;10036;47.812;9.274;2022-09-03T03:22:56;16.10;99.90
19755;DHT22;10036;47.812;9.274;2022-09-03T03:25:23;16.10;99.90
19755;DHT22;10036;47.812;9.274;2022-09-03T03:27:50;16.10;99.90
19755;DHT22;10036;47.812;9.274;2022-09-03T03:30:17;16.10;99.90
19755;DHT22;10036;47.812;9.274;2022-09-03T03:32:45;16.00;99.90
19755;DHT22;10036;47.812;9.274;2022-09-03T03:35:12;15.90;99.90
19755;DHT22;10036;47.812;9.274;2022-09-03T03:37:39;15.90;99.90
19755;DHT22;10036;47.812;9.274;2022-09-03T03:40:08;15.90;99.90
19755;DHT22;10036;47.812;9.274;2022-09-03T03:42:36;15.80;99.90
19755;DHT22;10036;47.812;9.274;2022-09-03T03:45:04;15.80;99.90
19755;DHT22;10036;47.812;9.274;2022-09-03T03:47:31;15.80;99.90
19755;DHT22;10036;47.812;9.274;2022-09-03T03:49:59;16.00;99.90
19755;DHT22;10036;47.812;9.274;2022-09-03T03:52:26;16.10;99.90
19755;DHT22;10036;47.812;9.274;2022-09-03T03:54:54;16.10;99.90
19755;DHT22;10036;47.812;9.274;2022-09-03T03:57:23;16.10;99.90
19755;DHT22;10036;47.812;9.274;2022-09-03T03:59:50;16.00;99.90
19755;DHT22;10036;47.812;9.274;2022-09-03T04:02:17;16.00;99.90
19755;DHT22;10036;47.812;9.274;2022-09-03T04:04:44;15.90;99.90
19755;DHT22;10036;47.812;9.274;2022-09-03T04:07:11;15.80;99.90
19755;DHT22;10036;47.812;9.274;2022-09-03T04:09:38;15.70;99.90
19755;DHT22;10036;47.812;9.274;2022-09-03T04:12:05;15.70;99.90
19755;DHT22;10036;47.812;9.274;2022-09-03T04:14:34;15.80;99.90
19755;DHT22;10036;47.812;9.274;2022-09-03T04:17:01;15.90;99.90
19755;DHT22;10036;47.812;9.274;2022-09-03T04:19:31;15.90;99.90
19755;DHT22;10036;47.812;9.274;2022-09-03T04:21:58;16.00;99.90
19755;DHT22;10036;47.812;9.274;2022-09-03T04:24:25;15.90;99.90
19755;DHT22;10036;47.812;9.274;2022-09-03T04:26:52;15.90;99.90
19755;DHT22;10036;47.812;9.274;2022-09-03T04:29:19;16.00;99.90
19755;DHT22;10036;47.812;9.274;2022-09-03T04:31:48;15.90;99.90
19755;DHT22;10036;47.812;9.274;2022-09-03T04:34:32;15.90;99.90
19755;DHT22;10036;47.812;9.274;2022-09-03T04:36:59;15.90;99.90
19755;DHT22;10036;47.812;9.274;2022-09-03T04:39:26;16.00;99.90
19755;DHT22;10036;47.812;9.274;2022-09-03T04:41:53;16.00;99.90
19755;DHT22;10036;47.812;9.274;2022-09-03T04:44:20;16.00;99.90
19755;DHT22;10036;47.812;9.274;2022-09-03T04:46:48;15.90;99.90
19755;DHT22;10036;47.812;9.274;2022-09-03T04:49:15;16.00;99.90
19755;DHT22;10036;47.812;9.274;2022-09-03T04:51:42;16.00;99.90
19755;DHT22;10036;47.812;9.274;2022-09-03T04:54:09;16.10;99.90
19755;DHT22;10036;47.812;9.274;2022-09-03T04:56:38;16.00;99.90
19755;DHT22;10036;47.812;9.274;2022-09-03T04:59:06;16.10;99.90
19755;DHT22;10036;47.812;9.274;2022-09-03T05:01:35;16.20;99.90
19755;DHT22;10036;47.812;9.274;2022-09-03T05:04:04;16.30;99.90
19755;DHT22;10036;47.812;9.274;2022-09-03T05:06:32;16.20;99.90
19755;DHT22;10036;47.812;9.274;2022-09-03T05:09:00;16.30;99.90
19755;DHT22;10036;47.812;9.274;2022-09-03T05:11:27;16.30;99.90
19755;DHT22;10036;47.812;9.274;2022-09-03T05:13:56;16.40;99.90
19755;DHT22;10036;47.812;9.274;2022-09-03T05:16:24;16.40;99.90
19755;DHT22;10036;47.812;9.274;2022-09-03T05:18:53;16.40;99.90
19755;DHT22;10036;47.812;9.274;2022-09-03T05:21:22;16.50;99.90
19755;DHT22;10036;47.812;9.274;2022-09-03T05:23:50;16.50;99.90
19755;DHT22;10036;47.812;9.274;2022-09-03T05:26:19;16.30;99.90
19755;DHT22;10036;47.812;9.274;2022-09-03T05:28:46;16.20;99.90
19755;DHT22;10036;47.812;9.274;2022-09-03T05:31:15;16.10;99.90
19755;DHT22;10036;47.812;9.274;2022-09-03T05:33:44;16.00;99.90
19755;DHT22;10036;47.812;9.274;2022-09-03T05:36:13;16.00;99.90
19755;DHT22;10036;47.812;9.274;2022-09-03T05:38:42;16.00;99.90
19755;DHT22;10036;47.812;9.274;2022-09-03T05:41:11;16.00;99.90
19755;DHT22;10036;47.812;9.274;2022-09-03T05:43:39;16.00;99.90
19755;DHT22;10036;47.812;9.274;2022-09-03T05:46:09;16.00;99.90
19755;DHT22;10036;47.812;9.274;2022-09-03T05:48:38;16.00;99.90
19755;DHT22;10036;47.812;9.274;2022-09-03T05:51:07;16.10;99.90
19755;DHT22;10036;47.812;9.274;2022-09-03T05:53:35;16.10;99.90
19755;DHT22;10036;47.812;9.274;2022-09-03T05:56:06;16.10;99.90
19755;DHT22;10036;47.812;9.274;2022-09-03T05:58:36;16.10;99.90
19755;DHT22;10036;47.812;9.274;2022-09-03T06:01:09;16.10;99.90
19755;DHT22;10036;47.812;9.274;2022-09-03T06:03:37;16.20;99.90
19755;DHT22;10036;47.812;9.274;2022-09-03T06:06:06;16.10;99.90
19755;DHT22;10036;47.812;9.274;2022-09-03T06:08:33;16.10;99.90
19755;DHT22;10036;47.812;9.274;2022-09-03T06:11:04;16.10;99.90
19755;DHT22;10036;47.812;9.274;2022-09-03T06:13:32;16.10;99.90
19755;DHT22;10036;47.812;9.274;2022-09-03T06:16:01;16.10;99.90
19755;DHT22;10036;47.812;9.274;2022-09-03T06:18:28;16.20;99.90
19755;DHT22;10036;47.812;9.274;2022-09-03T06:20:56;16.10;99.90
19755;DHT22;10036;47.812;9.274;2022-09-03T06:23:26;16.20;99.90
19755;DHT22;10036;47.812;9.274;2022-09-03T06:26:01;16.20;99.90
19755;DHT22;10036;47.812;9.274;2022-09-03T06:28:29;16.20;99.90
19755;DHT22;10036;47.812;9.274;2022-09-03T06:30:57;16.30;99.90
19755;DHT22;10036;47.812;9.274;2022-09-03T06:33:24;16.40;99.90
19755;DHT22;10036;47.812;9.274;2022-09-03T06:35:53;16.50;99.90
19755;DHT22;10036;47.812;9.274;2022-09-03T06:38:22;16.70;99.90
19755;DHT22;10036;47.812;9.274;2022-09-03T06:40:52;16.80;99.90
19755;DHT22;10036;47.812;9.274;2022-09-03T06:43:19;16.90;99.90
19755;DHT22;10036;47.812;9.274;2022-09-03T06:45:54;16.90;99.90
19755;DHT22;10036;47.812;9.274;2022-09-03T06:48:21;16.90;99.90
19755;DHT22;10036;47.812;9.274;2022-09-03T06:50:55;17.00;99.90
19755;DHT22;10036;47.812;9.274;2022-09-03T06:53:23;17.00;99.90
19755;DHT22;10036;47.812;9.274;2022-09-03T06:55:54;17.00;99.90
19755;DHT22;10036;47.812;9.274;2022-09-03T06:58:21;17.00;99.90
19755;DHT22;10036;47.812;9.274;2022-09-03T07:00:49;17.00;99.90
19755;DHT22;10036;47.812;9.274;2022-09-03T07:03:19;17.10;99.90
19755;DHT22;10036;47.812;9.274;2022-09-03T07:05:46;17.10;99.90
19755;DHT22;10036;47.812;9.274;2022-09-03T07:08:13;17.10;99.90
19755;DHT22;10036;47.812;9.274;2022-09-03T07:10:44;17.00;99.90
19755;DHT22;10036;47.812;9.274;2022-09-03T07:13:12;17.00;99.90
19755;DHT22;10036;47.812;9.274;2022-09-03T07:15:39;17.00;99.90
19755;DHT22;10036;47.812;9.274;2022-09-03T07:18:06;17.10;99.90
19755;DHT22;10036;47.812;9.274;2022-09-03T07:20:35;17.20;99.90
19755;DHT22;10036;47.812;9.274;2022-09-03T07:23:01;17.30;99.90
19755;DHT22;10036;47.812;9.274;2022-09-03T07:25:28;17.40;99.90
19755;DHT22;10036;47.812;9.274;2022-09-03T07:27:56;17.50;99.90
19755;DHT22;10036;47.812;9.274;2022-09-03T07:30:23;17.60;99.90
19755;DHT22;10036;47.812;9.274;2022-09-03T07:32:51;17.70;99.90
19755;DHT22;10036;47.812;9.274;2022-09-03T07:35:18;17.70;99.90
19755;DHT22;10036;47.812;9.274;2022-09-03T07:37:47;17.80;99.90
19755;DHT22;10036;47.812;9.274;2022-09-03T07:40:13;18.00;99.90
19755;DHT22;10036;47.812;9.274;2022-09-03T07:42:43;18.10;99.90
19755;DHT22;10036;47.812;9.274;2022-09-03T07:45:13;18.10;99.90
19755;DHT22;10036;47.812;9.274;2022-09-03T07:47:45;18.20;99.90
19755;DHT22;10036;47.812;9.274;2022-09-03T07:50:14;18.30;99.90
19755;DHT22;10036;47.812;9.274;2022-09-03T07:52:42;18.30;99.90
19755;DHT22;10036;47.812;9.274;2022-09-03T07:55:10;18.40;99.90
19755;DHT22;10036;47.812;9.274;2022-09-03T07:57:37;18.40;99.90
19755;DHT22;10036;47.812;9.274;2022-09-03T08:00:05;18.40;99.90
19755;DHT22;10036;47.812;9.274;2022-09-03T08:02:32;18.50;99.90
19755;DHT22;10036;47.812;9.274;2022-09-03T08:04:59;18.50;99.90
19755;DHT22;10036;47.812;9.274;2022-09-03T08:07:28;18.50;99.90
19755;DHT22;10036;47.812;9.274;2022-09-03T08:09:55;18.60;99.90
19755;DHT22;10036;47.812;9.274;2022-09-03T08:12:23;18.60;99.90
19755;DHT22;10036;47.812;9.274;2022-09-03T08:14:50;18.60;99.90
19755;DHT22;10036;47.812;9.274;2022-09-03T08:17:17;18.60;99.90
19755;DHT22;10036;47.812;9.274;2022-09-03T08:19:43;18.50;99.90
19755;DHT22;10036;47.812;9.274;2022-09-03T08:22:12;18.40;99.90
19755;DHT22;10036;47.812;9.274;2022-09-03T08:24:39;18.30;99.90
19755;DHT22;10036;47.812;9.274;2022-09-03T08:27:10;18.20;99.90
19755;DHT22;10036;47.812;9.274;2022-09-03T08:29:38;18.10;99.90
19755;DHT22;10036;47.812;9.274;2022-09-03T08:32:05;18.10;99.90
19755;DHT22;10036;47.812;9.274;2022-09-03T08:34:32;18.10;99.90
19755;DHT22;10036;47.812;9.274;2022-09-03T08:36:59;18.10;99.90
19755;DHT22;10036;47.812;9.274;2022-09-03T08:39:26;18.10;99.90
19755;DHT22;10036;47.812;9.274;2022-09-03T08:42:15;18.20;99.90
19755;DHT22;10036;47.812;9.274;2022-09-03T08:44:48;18.30;99.90
19755;DHT22;10036;47.812;9.274;2022-09-03T08:47:19;18.40;99.90
19755;DHT22;10036;47.812;9.274;2022-09-03T08:49:50;18.50;99.90
19755;DHT22;10036;47.812;9.274;2022-09-03T08:52:27;18.50;99.90
19755;DHT22;10036;47.812;9.274;2022-09-03T08:55:03;18.60;99.90
19755;DHT22;10036;47.812;9.274;2022-09-03T08:57:39;18.60;99.90
19755;DHT22;10036;47.812;9.274;2022-09-03T09:00:11;18.60;99.90
19755;DHT22;10036;47.812;9.274;2022-09-03T09:02:47;18.80;99.90
19755;DHT22;10036;47.812;9.274;2022-09-03T09:05:22;18.90;99.90
19755;DHT22;10036;47.812;9.274;2022-09-03T09:07:54;18.90;99.90
19755;DHT22;10036;47.812;9.274;2022-09-03T09:10:32;18.90;99.90
19755;DHT22;10036;47.812;9.274;2022-09-03T09:13:11;19.00;99.90
19755;DHT22;10036;47.812;9.274;2022-09-03T09:15:50;19.10;99.90
19755;DHT22;10036;47.812;9.274;2022-09-03T09:18:24;19.10;99.90
19755;DHT22;10036;47.812;9.274;2022-09-03T09:21:00;19.20;99.90
19755;DHT22;10036;47.812;9.274;2022-09-03T09:23:34;19.20;99.90
19755;DHT22;10036;47.812;9.274;2022-09-03T09:26:07;19.30;99.90
19755;DHT22;10036;47.812;9.274;2022-09-03T09:28:37;19.30;99.90
19755;DHT22;10036;47.812;9.274;2022-09-03T09:31:07;19.30;99.90
19755;DHT22;10036;47.812;9.274;2022-09-03T09:33:37;19.40;99.90
19755;DHT22;10036;47.812;9.274;2022-09-03T09:36:06;19.50;99.90
19755;DHT22;10036;47.812;9.274;2022-09-03T09:38:35;19.70;99.90
19755;DHT22;10036;47.812;9.274;2022-09-03T09:41:10;19.70;99.90
19755;DHT22;10036;47.812;9.274;2022-09-03T09:43:37;19.70;99.90
19755;DHT22;10036;47.812;9.274;2022-09-03T09:46:12;19.70;99.90
19755;DHT22;10036;47.812;9.274;2022-09-03T09:48:48;19.80;99.90
19755;DHT22;10036;47.812;9.274;2022-09-03T09:51:19;19.90;99.90
19755;DHT22;10036;47.812;9.274;2022-09-03T09:53:47;20.00;99.90
19755;DHT22;10036;47.812;9.274;2022-09-03T09:56:21;20.10;99.90
19755;DHT22;10036;47.812;9.274;2022-09-03T09:58:49;20.20;99.90
19755;DHT22;10036;47.812;9.274;2022-09-03T10:01:21;20.20;99.90
19755;DHT22;10036;47.812;9.274;2022-09-03T10:03:52;20.20;99.90
19755;DHT22;10036;47.812;9.274;2022-09-03T10:06:23;20.30;99.90
19755;DHT22;10036;47.812;9.274;2022-09-03T10:09:10;20.40;99.90
19755;DHT22;10036;47.812;9.274;2022-09-03T10:11:39;20.50;99.90
19755;DHT22;10036;47.812;9.274;2022-09-03T10:14:14;20.60;99.90
19755;DHT22;10036;47.812;9.274;2022-09-03T10:16:45;20.70;99.90
19755;DHT22;10036;47.812;9.274;2022-09-03T10:19:16;20.90;99.90
19755;DHT22;10036;47.812;9.274;2022-09-03T10:21:48;21.10;99.90
19755;DHT22;10036;47.812;9.274;2022-09-03T10:24:29;21.30;99.90
19755;DHT22;10036;47.812;9.274;2022-09-03T10:26:57;21.40;99.90
19755;DHT22;10036;47.812;9.274;2022-09-03T10:29:24;21.30;99.90
19755;DHT22;10036;47.812;9.274;2022-09-03T10:32:02;21.20;99.90
19755;DHT22;10036;47.812;9.274;2022-09-03T10:34:39;21.10;99.90
19755;DHT22;10036;47.812;9.274;2022-09-03T10:37:19;20.90;99.90
19755;DHT22;10036;47.812;9.274;2022-09-03T10:40:04;20.70;99.90
19755;DHT22;10036;47.812;9.274;2022-09-03T10:42:41;20.50;99.90
19755;DHT22;10036;47.812;9.274;2022-09-03T10:45:17;20.00;99.90
19755;DHT22;10036;47.812;9.274;2022-09-03T10:50:46;19.40;99.90
19755;DHT22;10036;47.812;9.274;2022-09-03T10:53:28;19.20;99.90
19755;DHT22;10036;47.812;9.274;2022-09-03T10:56:00;19.20;99.90
19755;DHT22;10036;47.812;9.274;2022-09-03T10:58:47;19.20;99.90
19755;DHT22;10036;47.812;9.274;2022-09-03T11:01:24;19.40;99.90
19755;DHT22;10036;47.812;9.274;2022-09-03T11:06:53;19.80;99.90
19755;DHT22;10036;47.812;9.274;2022-09-03T11:09:23;19.90;99.90
19755;DHT22;10036;47.812;9.274;2022-09-03T11:11:55;20.00;99.90
19755;DHT22;10036;47.812;9.274;2022-09-03T11:14:34;20.00;99.90
19755;DHT22;10036;47.812;9.274;2022-09-03T11:17:06;20.20;99.90
19755;DHT22;10036;47.812;9.274;2022-09-03T11:19:41;20.50;99.90
19755;DHT22;10036;47.812;9.274;2022-09-03T11:22:13;20.40;99.90
19755;DHT22;10036;47.812;9.274;2022-09-03T11:24:42;20.60;99.90
19755;DHT22;10036;47.812;9.274;2022-09-03T11:27:21;20.90;99.90
19755;DHT22;10036;47.812;9.274;2022-09-03T11:29:56;21.00;99.90
19755;DHT22;10036;47.812;9.274;2022-09-03T11:32:30;20.80;99.90
19755;DHT22;10036;47.812;9.274;2022-09-03T11:35:13;20.90;99.90
19755;DHT22;10036;47.812;9.274;2022-09-03T11:37:49;20.90;99.90
19755;DHT22;10036;47.812;9.274;2022-09-03T11:40:18;21.10;99.90
19755;DHT22;10036;47.812;9.274;2022-09-03T11:42:46;21.20;99.90
19755;DHT22;10036;47.812;9.274;2022-09-03T11:45:21;21.20;99.90
19755;DHT22;10036;47.812;9.274;2022-09-03T11:47:49;21.10;99.90
19755;DHT22;10036;47.812;9.274;2022-09-03T11:50:21;21.00;99.90
19755;DHT22;10036;47.812;9.274;2022-09-03T11:52:49;20.90;99.90
19755;DHT22;10036;47.812;9.274;2022-09-03T11:55:29;20.90;99.90
19755;DHT22;10036;47.812;9.274;2022-09-03T11:58:08;21.10;99.90
19755;DHT22;10036;47.812;9.274;2022-09-03T12:00:36;21.10;99.90
19755;DHT22;10036;47.812;9.274;2022-09-03T12:03:04;21.00;99.90
19755;DHT22;10036;47.812;9.274;2022-09-03T12:05:41;21.00;99.90
19755;DHT22;10036;47.812;9.274;2022-09-03T12:08:42;21.10;99.90
19755;DHT22;10036;47.812;9.274;2022-09-03T12:11:28;21.10;99.90
19755;DHT22;10036;47.812;9.274;2022-09-03T12:14:06;21.10;99.90
19755;DHT22;10036;47.812;9.274;2022-09-03T12:16:54;21.10;99.90
19755;DHT22;10036;47.812;9.274;2022-09-03T12:19:28;21.10;99.90
19755;DHT22;10036;47.812;9.274;2022-09-03T12:21:59;21.00;99.90
19755;DHT22;10036;47.812;9.274;2022-09-03T12:24:30;21.20;99.90
19755;DHT22;10036;47.812;9.274;2022-09-03T12:27:00;21.40;99.90
19755;DHT22;10036;47.812;9.274;2022-09-03T12:29:29;21.50;99.90
19755;DHT22;10036;47.812;9.274;2022-09-03T12:32:05;21.60;99.90
19755;DHT22;10036;47.812;9.274;2022-09-03T12:34:32;21.50;99.90
19755;DHT22;10036;47.812;9.274;2022-09-03T12:37:01;21.60;99.90
19755;DHT22;10036;47.812;9.274;2022-09-03T12:39:28;21.60;99.90
19755;DHT22;10036;47.812;9.274;2022-09-03T12:42:00;21.80;99.90
19755;DHT22;10036;47.812;9.274;2022-09-03T12:44:30;21.80;99.90
19755;DHT22;10036;47.812;9.274;2022-09-03T12:47:02;21.70;99.90
19755;DHT22;10036;47.812;9.274;2022-09-03T12:49:38;21.60;99.90
19755;DHT22;10036;47.812;9.274;2022-09-03T12:52:15;21.70;99.90
19755;DHT22;10036;47.812;9.274;2022-09-03T12:54:49;21.80;99.90
19755;DHT22;10036;47.812;9.274;2022-09-03T12:57:20;21.90;99.90
19755;DHT22;10036;47.812;9.274;2022-09-03T12:59:50;21.90;99.90
19755;DHT22;10036;47.812;9.274;2022-09-03T13:02:25;21.90;99.90
19755;DHT22;10036;47.812;9.274;2022-09-03T13:04:54;21.80;99.90
19755;DHT22;10036;47.812;9.274;2022-09-03T13:07:26;21.80;99.90
19755;DHT22;10036;47.812;9.274;2022-09-03T13:10:00;22.00;99.90
19755;DHT22;10036;47.812;9.274;2022-09-03T13:12:31;22.00;99.90
19755;DHT22;10036;47.812;9.274;2022-09-03T13:15:05;21.90;99.90
19755;DHT22;10036;47.812;9.274;2022-09-03T13:20:34;22.00;99.90
19755;DHT22;10036;47.812;9.274;2022-09-03T13:23:16;21.90;99.90
19755;DHT22;10036;47.812;9.274;2022-09-03T13:25:52;22.00;99.90
19755;DHT22;10036;47.812;9.274;2022-09-03T13:28:32;22.10;99.90
19755;DHT22;10036;47.812;9.274;2022-09-03T13:31:09;22.20;99.90
19755;DHT22;10036;47.812;9.274;2022-09-03T13:33:46;22.50;99.90
19755;DHT22;10036;47.812;9.274;2022-09-03T13:36:16;22.60;99.90
19755;DHT22;10036;47.812;9.274;2022-09-03T13:38:50;22.50;99.90
19755;DHT22;10036;47.812;9.274;2022-09-03T13:41:29;22.50;99.90
19755;DHT22;10036;47.812;9.274;2022-09-03T13:44:02;22.70;99.90
19755;DHT22;10036;47.812;9.274;2022-09-03T13:46:40;22.60;99.90
19755;DHT22;10036;47.812;9.274;2022-09-03T13:49:19;22.70;99.90
19755;DHT22;10036;47.812;9.274;2022-09-03T13:52:10;22.80;99.90
19755;DHT22;10036;47.812;9.274;2022-09-03T13:54:44;22.80;99.90
19755;DHT22;10036;47.812;9.274;2022-09-03T13:57:24;22.90;99.90
19755;DHT22;10036;47.812;9.274;2022-09-03T13:59:56;22.90;99.90
19755;DHT22;10036;47.812;9.274;2022-09-03T14:02:30;23.00;99.90
19755;DHT22;10036;47.812;9.274;2022-09-03T14:05:04;23.00;99.90
19755;DHT22;10036;47.812;9.274;2022-09-03T14:07:45;22.90;99.90
19755;DHT22;10036;47.812;9.274;2022-09-03T14:10:26;23.00;99.90
19755;DHT22;10036;47.812;9.274;2022-09-03T14:13:05;23.10;99.90
19755;DHT22;10036;47.812;9.274;2022-09-03T14:15:42;23.00;99.90
19755;DHT22;10036;47.812;9.274;2022-09-03T14:18:14;22.80;99.90
19755;DHT22;10036;47.812;9.274;2022-09-03T14:20:46;22.90;99.90
19755;DHT22;10036;47.812;9.274;2022-09-03T14:23:26;22.80;99.90
19755;DHT22;10036;47.812;9.274;2022-09-03T14:25:59;23.10;99.90
19755;DHT22;10036;47.812;9.274;2022-09-03T14:28:30;23.30;99.90
19755;DHT22;10036;47.812;9.274;2022-09-03T14:31:06;23.60;99.90
19755;DHT22;10036;47.812;9.274;2022-09-03T14:33:43;23.60;99.90
19755;DHT22;10036;47.812;9.274;2022-09-03T14:36:20;23.70;99.90
19755;DHT22;10036;47.812;9.274;2022-09-03T14:39:11;23.90;99.90
19755;DHT22;10036;47.812;9.274;2022-09-03T14:42:14;24.00;99.90
19755;DHT22;10036;47.812;9.274;2022-09-03T14:48:18;24.30;99.90
19755;DHT22;10036;47.812;9.274;2022-09-03T14:50:58;24.50;99.90
19755;DHT22;10036;47.812;9.274;2022-09-03T14:53:46;24.40;99.90
19755;DHT22;10036;47.812;9.274;2022-09-03T14:56:28;24.50;99.90
19755;DHT22;10036;47.812;9.274;2022-09-03T14:59:17;24.50;99.90
19755;DHT22;10036;47.812;9.274;2022-09-03T15:01:51;24.30;99.90
19755;DHT22;10036;47.812;9.274;2022-09-03T15:04:47;24.30;99.90
19755;DHT22;10036;47.812;9.274;2022-09-03T15:07:32;24.40;99.90
19755;DHT22;10036;47.812;9.274;2022-09-03T15:10:05;24.70;99.90
19755;DHT22;10036;47.812;9.274;2022-09-03T15:12:40;24.70;99.90
19755;DHT22;10036;47.812;9.274;2022-09-03T15:15:14;24.50;99.90
19755;DHT22;10036;47.812;9.274;2022-09-03T15:20:35;24.60;99.90
19755;DHT22;10036;47.812;9.274;2022-09-03T15:23:19;24.60;99.90
19755;DHT22;10036;47.812;9.274;2022-09-03T15:29:02;24.70;99.90
19755;DHT22;10036;47.812;9.274;2022-09-03T15:31:45;24.60;99.90
19755;DHT22;10036;47.812;9.274;2022-09-03T15:34:32;24.70;99.90
19755;DHT22;10036;47.812;9.274;2022-09-03T15:37:01;24.60;99.90
19755;DHT22;10036;47.812;9.274;2022-09-03T15:39:36;24.50;99.90
19755;DHT22;10036;47.812;9.274;2022-09-03T15:42:08;24.50;99.90
19755;DHT22;10036;47.812;9.274;2022-09-03T15:44:41;24.50;99.90
19755;DHT22;10036;47.812;9.274;2022-09-03T15:47:15;24.20;99.90
19755;DHT22;10036;47.812;9.274;2022-09-03T15:49:58;24.20;99.90
19755;DHT22;10036;47.812;9.274;2022-09-03T15:52:36;24.20;99.90
19755;DHT22;10036;47.812;9.274;2022-09-03T15:55:08;24.30;99.90
19755;DHT22;10036;47.812;9.274;2022-09-03T15:57:40;24.30;99.90
19755;DHT22;10036;47.812;9.274;2022-09-03T16:00:16;24.20;99.90
19755;DHT22;10036;47.812;9.274;2022-09-03T16:02:51;24.10;99.90
19755;DHT22;10036;47.812;9.274;2022-09-03T16:05:24;24.10;99.90
19755;DHT22;10036;47.812;9.274;2022-09-03T16:08:07;24.10;99.90
19755;DHT22;10036;47.812;9.274;2022-09-03T16:10:45;24.10;99.90
19755;DHT22;10036;47.812;9.274;2022-09-03T16:13:30;24.30;99.90
19755;DHT22;10036;47.812;9.274;2022-09-03T16:16:01;24.20;99.90
19755;DHT22;10036;47.812;9.274;2022-09-03T16:18:33;24.20;99.90
19755;DHT22;10036;47.812;9.274;2022-09-03T16:21:05;24.00;99.90